Time;durP1;ratioP1;P1;durP2;ratioP2;P2;SDS_P1;SDS_P2;PMS_P1;PMS_P2;Temp;Humidity;BMP_temperature;BMP_pressure;BME280_temperature;BME280_humidity;BME280_pressure;Samples;Min_cycle;Max_cycle;Signal;HPM_P1;HPM_P2
2023/06/17 00:00:35;;;;;;;;;22.33;20.00;;;;;23.03;76.48;100166.50;5037275;28;45494;-69
2023/06/17 00:03:01;;;;;;;;;20.67;20.00;;;;;22.98;76.64;100157.75;5037913;28;45572;-71
2023/06/17 00:05:26;;;;;;;;;19.33;19.33;;;;;22.93;76.31;100168.50;5056329;28;45478;-73
2023/06/17 00:07:52;;;;;;;;;22.33;19.33;;;;;22.80;77.17;100165.31;5054937;28;45405;-71
2023/06/17 00:10:18;;;;;;;;;22.33;21.67;;;;;22.79;77.23;100163.53;5054523;28;45439;-70
2023/06/17 00:12:44;;;;;;;;;23.67;21.00;;;;;22.73;78.40;100160.19;5051160;28;45366;-70
2023/06/17 00:15:10;;;;;;;;;21.33;19.67;;;;;22.68;78.25;100148.75;5043922;28;45559;-70
2023/06/17 00:17:37;;;;;;;;;23.33;18.33;;;;;22.75;77.19;100156.56;5043236;28;46252;-70
2023/06/17 00:20:11;;;;;;;;;21.33;19.33;;;;;22.76;77.19;100153.00;5051924;28;45547;-70
2023/06/17 00:22:39;;;;;;;;;25.67;23.33;;;;;22.66;77.57;100146.16;5052362;28;45382;-70
2023/06/17 00:25:05;;;;;;;;;24.33;21.00;;;;;22.62;77.61;100156.00;5049739;28;45276;-70
2023/06/17 00:27:30;;;;;;;;;21.00;20.67;;;;;22.53;78.05;100156.25;5044741;28;46190;-71
2023/06/17 00:29:59;;;;;;;;;24.00;20.67;;;;;22.55;77.82;100153.53;5055275;28;45569;-71
2023/06/17 00:32:26;;;;;;;;;22.33;21.33;;;;;22.63;77.80;100164.88;5039323;28;45564;-70
2023/06/17 00:34:52;;;;;;;;;25.67;21.33;;;;;22.63;77.33;100170.19;5047096;28;45397;-71
2023/06/17 00:37:17;;;;;;;;;26.00;20.67;;;;;22.59;77.32;100161.41;5052563;28;45935;-71
2023/06/17 00:39:43;;;;;;;;;22.00;20.33;;;;;22.60;77.38;100154.28;5058198;28;45761;-70
2023/06/17 00:42:08;;;;;;;;;20.67;20.33;;;;;22.52;77.88;100148.28;5045494;28;45560;-70
2023/06/17 00:44:34;;;;;;;;;23.33;22.67;;;;;22.41;77.51;100129.94;5055232;28;45347;-70
2023/06/17 00:47:00;;;;;;;;;23.00;21.67;;;;;22.43;77.71;100133.44;5040334;28;47689;-70
2023/06/17 00:49:34;;;;;;;;;25.33;21.33;;;;;22.47;77.83;100128.91;5042404;28;45422;-71
2023/06/17 00:52:06;;;;;;;;;24.00;23.00;;;;;22.41;77.97;100132.59;5039278;28;45489;-70
2023/06/17 00:54:32;;;;;;;;;24.33;22.33;;;;;22.43;77.85;100126.31;5039517;28;45416;-70
2023/06/17 00:57:01;;;;;;;;;21.33;20.33;;;;;22.44;77.36;100122.75;5052778;28;46080;-69
2023/06/17 00:59:30;;;;;;;;;25.33;22.67;;;;;22.41;78.01;100114.84;5056590;28;45501;-70
2023/06/17 01:01:55;;;;;;;;;26.00;23.33;;;;;22.41;77.14;100109.50;5045157;28;45579;-70
2023/06/17 01:04:21;;;;;;;;;20.33;20.00;;;;;22.36;77.25;100095.47;5047738;28;45512;-70
2023/06/17 01:07:23;;;;;;;;;23.00;21.33;;;;;22.38;77.78;100093.66;5043010;28;47052;-71
2023/06/17 01:09:56;;;;;;;;;22.67;21.00;;;;;22.38;76.96;100084.75;5025818;28;45754;-70
2023/06/17 01:12:25;;;;;;;;;23.00;21.33;;;;;22.32;77.46;100083.16;5038361;28;45565;-70
2023/06/17 01:14:54;;;;;;;;;22.33;20.67;;;;;22.29;77.94;100072.59;5038845;28;45636;-70
2023/06/17 01:17:20;;;;;;;;;24.00;23.00;;;;;22.27;78.08;100066.44;5040247;28;48091;-70
2023/06/17 01:19:48;;;;;;;;;25.33;24.33;;;;;22.13;78.32;100039.28;5049388;28;45378;-71
2023/06/17 01:22:16;;;;;;;;;22.00;22.00;;;;;22.19;78.64;100049.75;5037411;28;45389;-70
2023/06/17 01:24:43;;;;;;;;;23.33;20.67;;;;;22.13;77.93;100044.59;5039524;28;45300;-71
2023/06/17 01:27:08;;;;;;;;;22.00;22.00;;;;;21.98;79.17;100020.13;5057542;28;45990;-70
2023/06/17 01:29:36;;;;;;;;;23.67;22.67;;;;;21.89;79.56;100024.81;5039569;28;45399;-70
2023/06/17 01:32:02;;;;;;;;;23.67;22.67;;;;;21.64;79.61;99991.72;5039737;28;45614;-70
2023/06/17 01:34:43;;;;;;;;;24.33;20.67;;;;;;;;5041314;28;45485;-71
2023/06/17 01:37:13;;;;;;;;;28.33;25.67;;;;;21.73;80.75;100011.03;5050521;28;46261;-71
2023/06/17 01:39:47;;;;;;;;;23.33;22.67;;;;;21.75;80.22;100003.88;5038198;28;45417;-70
2023/06/17 01:42:31;;;;;;;;;25.33;21.67;;;;;21.84;80.22;100017.84;5053843;28;45369;-71
2023/06/17 01:44:59;;;;;;;;;22.00;21.33;;;;;21.91;79.72;100023.00;5038476;28;45406;-71
2023/06/17 01:47:24;;;;;;;;;24.33;24.00;;;;;21.97;79.11;100033.47;5044502;28;46254;-70
2023/06/17 01:49:50;;;;;;;;;22.33;21.00;;;;;21.96;79.45;100037.91;5050822;28;45645;-70
2023/06/17 01:52:16;;;;;;;;;23.67;21.33;;;;;21.96;79.59;100037.91;5047856;28;45483;-70
2023/06/17 01:54:41;;;;;;;;;27.67;22.00;;;;;22.07;79.07;100060.72;5038104;28;45600;-70
2023/06/17 01:57:07;;;;;;;;;24.67;23.33;;;;;22.06;79.15;100062.47;5042753;28;46234;-69
2023/06/17 01:59:33;;;;;;;;;24.67;22.00;;;;;22.06;78.85;100049.19;5037894;28;45502;-70
2023/06/17 02:01:58;;;;;;;;;22.67;21.00;;;;;22.01;79.38;100051.09;5046142;28;45640;-70
2023/06/17 02:04:24;;;;;;;;;24.67;23.00;;;;;21.95;78.99;100033.50;5057411;28;45455;-71
2023/06/17 02:06:51;;;;;;;;;26.67;24.67;;;;;22.08;78.78;100050.00;5056958;28;45484;-69
2023/06/17 02:09:17;;;;;;;;;26.33;25.00;;;;;22.02;80.49;100052.84;5057018;28;45440;-70
2023/06/17 02:11:43;;;;;;;;;26.00;23.33;;;;;21.96;80.62;100052.97;5056352;28;45544;-71
2023/06/17 02:14:08;;;;;;;;;29.33;27.33;;;;;21.91;81.52;100062.88;5057502;28;45323;-70
2023/06/17 02:16:39;;;;;;;;;24.33;22.00;;;;;21.91;80.68;100058.44;5056501;28;45476;-70
2023/06/17 02:19:04;;;;;;;;;23.00;21.33;;;;;21.89;80.72;100049.63;5045265;28;45394;-70
2023/06/17 02:21:30;;;;;;;;;21.33;19.67;;;;;21.93;80.72;100061.06;5053421;28;45343;-69
2023/06/17 02:23:56;;;;;;;;;22.33;21.33;;;;;22.00;80.68;100067.97;5053477;28;45474;-71
2023/06/17 02:26:21;;;;;;;;;25.00;23.67;;;;;22.09;79.51;100070.41;5037360;28;45462;-71
2023/06/17 02:28:47;;;;;;;;;29.25;25.00;;;;;22.10;79.70;100048.19;5037631;28;45903;-71
2023/06/17 02:31:12;;;;;;;;;23.67;23.33;;;;;22.15;79.53;100054.28;5037623;28;45490;-71
2023/06/17 02:33:38;;;;;;;;;23.67;23.00;;;;;22.17;79.47;100035.63;5037852;28;46182;-70
2023/06/17 02:36:04;;;;;;;;;25.00;23.00;;;;;22.15;79.52;100016.16;5037528;28;45492;-71
2023/06/17 02:38:29;;;;;;;;;25.00;24.67;;;;;22.14;80.12;100009.94;5037478;28;45515;-70
2023/06/17 02:40:55;;;;;;;;;26.67;23.33;;;;;22.12;80.47;100025.06;5037669;28;45362;-70
2023/06/17 02:43:20;;;;;;;;;24.67;23.00;;;;;22.02;80.03;100015.59;5037628;28;45405;-71
2023/06/17 02:45:46;;;;;;;;;30.00;25.25;;;;;22.02;81.21;100020.91;5036898;28;45953;-71
2023/06/17 02:48:12;;;;;;;;;22.67;20.67;;;;;22.08;80.11;100015.44;5049948;28;45377;-70
2023/06/17 02:50:37;;;;;;;;;27.25;25.00;;;;;22.07;81.23;100007.53;5040504;28;45375;-70
2023/06/17 02:53:04;;;;;;;;;27.33;24.33;;;;;22.14;81.25;100014.41;5044786;28;45437;-70
2023/06/17 02:55:30;;;;;;;;;24.00;23.00;;;;;22.13;81.44;100007.34;5036419;28;46047;-70
2023/06/17 02:57:55;;;;;;;;;24.00;22.00;;;;;22.00;80.58;99986.41;5044555;28;45848;-71
2023/06/17 03:00:21;;;;;;;;;23.67;20.67;;;;;22.08;80.19;99987.97;5036792;28;45472;-71
2023/06/17 03:02:48;;;;;;;;;23.00;21.00;;;;;21.96;81.08;99991.81;5052468;28;45502;-70
2023/06/17 03:05:14;;;;;;;;;25.00;23.00;;;;;21.91;80.97;99989.28;5036549;28;45715;-70
2023/06/17 03:07:40;;;;;;;;;22.33;22.33;;;;;21.83;80.69;99989.47;5036744;28;45661;-71
2023/06/17 03:10:07;;;;;;;;;22.67;21.67;;;;;21.80;81.55;99991.34;5036812;28;45382;-70
2023/06/17 03:12:32;;;;;;;;;24.00;21.67;;;;;21.74;81.28;99988.84;5035454;28;45570;-71
2023/06/17 03:14:58;;;;;;;;;24.00;22.33;;;;;21.72;81.53;99986.22;5045747;28;46387;-70
2023/06/17 03:17:24;;;;;;;;;25.00;23.67;;;;;21.76;81.64;100002.97;5047372;28;45496;-69
2023/06/17 03:19:51;;;;;;;;;25.00;22.33;;;;;21.80;81.31;100004.63;5038497;28;45440;-69
2023/06/17 03:22:16;;;;;;;;;25.00;23.33;;;;;21.67;81.98;99988.13;5046230;28;45574;-70
2023/06/17 03:24:42;;;;;;;;;24.67;21.33;;;;;21.68;82.37;100011.13;5049902;28;45562;-70
2023/06/17 03:27:07;;;;;;;;;23.33;21.33;;;;;21.68;81.71;100007.59;5045303;28;45371;-70
2023/06/17 03:29:36;;;;;;;;;24.33;23.33;;;;;21.70;81.48;100001.31;5043702;28;45969;-70
2023/06/17 03:32:02;;;;;;;;;25.00;22.67;;;;;21.71;81.98;99991.59;5037572;28;45387;-69
2023/06/17 03:34:28;;;;;;;;;23.67;23.00;;;;;21.76;81.63;100000.31;5050505;28;45980;-71
2023/06/17 03:36:53;;;;;;;;;24.75;23.00;;;;;21.77;82.38;100004.72;5036533;28;45547;-70
2023/06/17 03:39:19;;;;;;;;;22.00;22.00;;;;;21.72;81.70;99986.22;5036755;28;45567;-70
2023/06/17 03:41:45;;;;;;;;;24.33;22.00;;;;;21.83;80.93;100004.56;5044180;28;45604;-70
2023/06/17 03:44:10;;;;;;;;;25.67;23.67;;;;;21.65;81.44;99990.81;5038718;28;45339;-71
2023/06/17 03:46:36;;;;;;;;;21.33;20.33;;;;;21.67;81.16;100008.53;5040679;28;45450;-71
2023/06/17 03:49:02;;;;;;;;;23.50;22.50;;;;;21.72;81.26;99998.63;5051746;28;45568;-70
2023/06/17 03:51:28;;;;;;;;;28.00;25.67;;;;;21.69;81.69;99996.06;5042752;28;45378;-70
2023/06/17 03:53:53;;;;;;;;;27.67;24.33;;;;;21.69;81.50;100004.03;5055363;28;45452;-70
2023/06/17 03:56:19;;;;;;;;;25.67;24.00;;;;;21.56;81.95;99985.72;5042009;28;45729;-71
2023/06/17 03:58:44;;;;;;;;;26.33;24.33;;;;;21.58;81.80;100007.81;5042177;28;45640;-70
2023/06/17 04:01:12;;;;;;;;;27.67;23.67;;;;;21.53;81.86;99996.44;5053230;28;45641;-70
2023/06/17 04:03:40;;;;;;;;;24.67;23.00;;;;;21.61;81.29;100002.44;5038242;28;46682;-71
2023/06/17 04:06:06;;;;;;;;;21.50;21.25;;;;;21.58;81.88;99994.50;5039280;28;45689;-70
2023/06/17 04:08:36;;;;;;;;;25.00;23.00;;;;;21.55;82.04;99993.75;5037709;28;45668;-70
2023/06/17 04:11:02;;;;;;;;;30.67;28.00;;;;;21.51;82.05;100010.69;5039559;28;45787;-69
2023/06/17 04:13:28;;;;;;;;;21.00;20.00;;;;;21.36;81.92;100011.84;5045888;28;46325;-70
2023/06/17 04:15:54;;;;;;;;;24.00;22.33;;;;;21.34;81.79;100014.53;5054553;28;45315;-70
2023/06/17 04:18:19;;;;;;;;;24.00;22.33;;;;;21.33;82.20;100014.56;5058910;28;45499;-70
2023/06/17 04:20:45;;;;;;;;;26.67;22.33;;;;;21.26;82.12;99997.91;5053074;28;45325;-70
2023/06/17 04:23:10;;;;;;;;;15.25;14.00;;;;;21.19;83.52;100002.50;5042035;28;46254;-70
2023/06/17 04:25:36;;;;;;;;;23.67;22.67;;;;;21.26;83.04;100017.38;5059779;28;45391;-70
2023/06/17 04:28:03;;;;;;;;;23.00;22.50;;;;;21.21;83.36;99997.16;5049359;28;45294;-72
2023/06/17 04:30:30;;;;;;;;;26.00;25.00;;;;;21.29;83.58;100010.22;5047014;28;45313;-70
2023/06/17 04:32:59;;;;;;;;;27.00;26.00;;;;;21.19;84.22;100017.56;5040694;28;45570;-70
2023/06/17 04:35:29;;;;;;;;;23.00;22.33;;;;;21.29;83.65;100035.03;5044291;28;45433;-71
2023/06/17 04:37:55;;;;;;;;;28.00;27.00;;;;;21.31;83.73;100027.00;5058391;28;45486;-73
2023/06/17 04:40:25;;;;;;;;;26.33;23.33;;;;;21.35;84.18;100028.72;5039335;28;45527;-72
2023/06/17 04:42:51;;;;;;;;;24.00;22.33;;;;;21.34;84.27;100026.97;5039071;28;46302;-72
2023/06/17 04:45:17;;;;;;;;;24.50;23.25;;;;;21.31;84.10;100019.03;5043869;28;45385;-72
2023/06/17 04:47:46;;;;;;;;;20.67;19.00;;;;;21.25;84.27;100018.28;5059688;28;45519;-71
2023/06/17 04:50:16;;;;;;;;;26.00;25.00;;;;;21.40;83.69;100043.63;5053875;28;45757;-73
2023/06/17 04:52:50;;;;;;;;;24.00;21.00;;;;;21.49;83.18;100042.59;5039249;28;45223;-72
2023/06/17 04:55:18;;;;;;;;;21.33;19.67;;;;;21.59;83.22;100043.25;5039078;28;45524;-72
2023/06/17 04:57:45;;;;;;;;;25.25;23.75;;;;;21.67;82.11;100040.44;5057685;28;45560;-73
2023/06/17 05:00:12;;;;;;;;;28.25;25.50;;;;;21.70;81.34;100035.88;5058310;28;45426;-72
2023/06/17 05:02:38;;;;;;;;;25.67;23.67;;;;;21.70;81.05;100027.03;5045998;28;45437;-72
2023/06/17 05:05:05;;;;;;;;;23.67;22.00;;;;;21.84;80.07;100038.22;5040306;28;45349;-72
2023/06/17 05:07:31;;;;;;;;;24.33;22.33;;;;;21.85;80.24;100040.84;5055181;28;45473;-73
2023/06/17 05:09:57;;;;;;;;;25.33;22.33;;;;;21.92;79.96;100036.22;5038919;28;45418;-70
2023/06/17 05:12:22;;;;;;;;;22.00;21.00;;;;;21.94;79.48;100031.75;5038016;28;46200;-70
2023/06/17 05:14:48;;;;;;;;;25.00;23.33;;;;;22.01;79.88;100037.81;5045005;28;45360;-69
2023/06/17 05:17:14;;;;;;;;;23.00;21.33;;;;;22.09;79.07;100034.94;5038747;28;45418;-70
2023/06/17 05:19:39;;;;;;;;;22.00;21.00;;;;;22.15;79.05;100029.47;5038533;28;45453;-70
2023/06/17 05:22:05;;;;;;;;;24.00;20.33;;;;;22.19;78.62;100017.84;5044793;28;46102;-70
2023/06/17 05:24:30;;;;;;;;;21.33;20.33;;;;;22.25;78.08;100023.03;5046630;28;45497;-71
2023/06/17 05:26:56;;;;;;;;;25.00;22.67;;;;;22.32;77.90;100019.28;5048333;28;45453;-71
2023/06/17 05:29:22;;;;;;;;;21.67;19.33;;;;;22.38;77.72;100021.78;5038665;28;45457;-70
2023/06/17 05:31:47;;;;;;;;;22.00;21.00;;;;;22.40;77.42;100019.97;5038233;28;46183;-71
2023/06/17 05:34:13;;;;;;;;;20.00;19.33;;;;;22.43;77.54;100014.53;5056280;28;45377;-70
2023/06/17 05:36:38;;;;;;;;;22.67;21.33;;;;;22.53;77.36;100022.28;5052984;28;45735;-70
2023/06/17 05:39:04;;;;;;;;;25.33;22.00;;;;;22.60;76.90;100013.19;5039053;28;45245;-71
2023/06/17 05:41:30;;;;;;;;;24.33;22.33;;;;;22.67;76.45;100017.44;5038261;28;45383;-70
2023/06/17 05:43:55;;;;;;;;;21.67;20.67;;;;;22.66;76.88;100015.72;5038528;28;45411;-71
2023/06/17 05:46:21;;;;;;;;;23.33;21.00;;;;;22.61;76.97;100004.31;5058360;28;45284;-70
2023/06/17 05:48:46;;;;;;;;;22.00;20.33;;;;;22.77;76.88;100000.28;5057761;28;45510;-70
2023/06/17 05:51:12;;;;;;;;;22.00;20.00;;;;;23.00;76.21;100010.28;5036355;28;45478;-70
2023/06/17 05:53:37;;;;;;;;;22.00;21.00;;;;;23.11;75.25;99993.97;5037922;28;45469;-71
2023/06/17 05:56:07;;;;;;;;;19.67;18.67;;;;;23.32;74.48;100007.59;5044638;28;45369;-70
2023/06/17 05:58:32;;;;;;;;;19.33;19.33;;;;;23.49;74.65;100015.03;5058357;28;45268;-71
2023/06/17 06:00:58;;;;;;;;;22.00;21.00;;;;;25.16;70.92;100011.00;5055691;28;45480;-70
2023/06/17 06:03:23;;;;;;;;;22.33;21.00;;;;;27.75;62.09;99990.72;5058063;28;45386;-70
2023/06/17 06:05:49;;;;;;;;;20.00;19.33;;;;;29.79;57.65;100012.09;5048795;28;45305;-71
2023/06/17 06:08:14;;;;;;;;;24.67;22.33;;;;;31.17;52.73;100000.94;5038095;28;45461;-71
2023/06/17 06:10:40;;;;;;;;;24.00;23.00;;;;;32.40;49.57;100024.34;5037557;28;45549;-71
2023/06/17 06:13:06;;;;;;;;;21.00;20.00;;;;;33.39;48.37;100021.81;5045250;28;45358;-71
2023/06/17 06:15:32;;;;;;;;;22.67;20.00;;;;;34.60;45.57;100014.47;5037299;28;45375;-72
2023/06/17 06:17:57;;;;;;;;;21.33;20.67;;;;;35.20;44.18;100019.69;5052962;28;45357;-70
2023/06/17 06:20:23;;;;;;;;;20.33;19.00;;;;;35.90;41.73;100025.72;5042563;28;46053;-71
2023/06/17 06:22:48;;;;;;;;;22.33;21.00;;;;;36.57;40.00;100033.53;5046281;28;45498;-71
2023/06/17 06:25:14;;;;;;;;;22.67;21.33;;;;;37.25;38.85;100038.50;5024194;28;45603;-72
2023/06/17 06:27:39;;;;;;;;;20.33;18.00;;;;;37.97;38.43;100025.56;5053656;28;45634;-71
2023/06/17 06:30:06;;;;;;;;;19.00;18.33;;;;;38.42;36.56;100024.09;5037581;28;45442;-71
2023/06/17 06:32:31;;;;;;;;;18.67;18.33;;;;;39.14;37.50;100026.22;5037575;28;47098;-72
2023/06/17 06:34:57;;;;;;;;;21.00;19.67;;;;;39.88;33.87;100018.03;5051554;28;45478;-72
2023/06/17 06:37:22;;;;;;;;;19.67;19.00;;;;;40.29;32.74;100015.63;5046125;28;45520;-71
2023/06/17 06:39:48;;;;;;;;;17.33;17.00;;;;;40.93;32.33;100024.47;5050285;28;45785;-70
2023/06/17 06:42:14;;;;;;;;;17.33;17.33;;;;;41.17;32.37;100018.25;5054448;28;45469;-73
2023/06/17 06:44:40;;;;;;;;;18.67;18.00;;;;;41.69;30.90;100020.84;5055122;28;45246;-73
2023/06/17 06:47:05;;;;;;;;;17.67;17.00;;;;;42.21;30.41;100025.19;5037279;28;45339;-72
2023/06/17 06:49:31;;;;;;;;;16.33;15.33;;;;;42.88;29.29;100026.84;5052535;28;45939;-73
2023/06/17 06:51:56;;;;;;;;;20.67;18.67;;;;;43.33;28.95;100030.78;5042383;28;45338;-73
2023/06/17 06:54:22;;;;;;;;;16.67;15.33;;;;;43.61;29.31;100030.28;5048726;28;45419;-73
2023/06/17 06:56:48;;;;;;;;;13.33;12.67;;;;;44.11;28.42;100031.66;5041258;28;45535;-73
2023/06/17 06:59:13;;;;;;;;;17.00;16.00;;;;;44.79;27.80;100037.22;5052056;28;45332;-73
2023/06/17 07:01:39;;;;;;;;;17.67;17.00;;;;;45.58;26.54;100047.63;5047636;28;45544;-72
2023/06/17 07:04:04;;;;;;;;;18.33;18.00;;;;;45.51;26.63;100019.97;5045513;28;45797;-72
2023/06/17 07:06:30;;;;;;;;;18.67;18.67;;;;;45.81;25.79;100050.25;5036776;28;45427;-72
2023/06/17 07:08:55;;;;;;;;;19.67;19.33;;;;;45.67;26.18;100040.13;5050827;28;46350;-72
2023/06/17 07:11:21;;;;;;;;;20.67;19.33;;;;;45.40;26.12;100043.38;5042785;28;45600;-71
2023/06/17 07:13:46;;;;;;;;;17.67;16.67;;;;;45.63;26.72;100048.75;5040835;28;45525;-73
2023/06/17 07:16:12;;;;;;;;;20.00;20.00;;;;;45.97;27.34;100052.75;5039915;28;45485;-72
2023/06/17 07:18:37;;;;;;;;;19.33;19.00;;;;;45.68;25.80;100044.59;5044018;28;46318;-71
2023/06/17 07:21:03;;;;;;;;;19.67;19.33;;;;;45.78;26.10;100051.47;5038566;28;45666;-72
2023/06/17 07:23:29;;;;;;;;;14.67;14.33;;;;;45.91;25.95;100052.69;5044791;28;45585;-72
2023/06/17 07:25:56;;;;;;;;;17.33;16.67;;;;;46.57;24.74;100046.94;5035852;28;45534;-71
2023/06/17 07:28:22;;;;;;;;;20.67;20.33;;;;;47.02;25.02;100050.22;5052997;28;46203;-74
2023/06/17 07:30:48;;;;;;;;;19.00;18.33;;;;;47.38;23.46;100038.91;5044938;28;45447;-72
2023/06/17 07:33:14;;;;;;;;;19.67;18.00;;;;;47.26;24.60;100043.34;5050102;28;45462;-73
2023/06/17 07:35:40;;;;;;;;;21.33;19.67;;;;;48.09;23.43;100036.75;5038091;28;45478;-73
2023/06/17 07:38:05;;;;;;;;;21.00;20.33;;;;;48.35;22.70;100045.09;5052177;28;45413;-73
2023/06/17 07:40:31;;;;;;;;;20.00;19.33;;;;;47.93;23.18;100040.78;5053111;28;45481;-72
2023/06/17 07:42:56;;;;;;;;;20.33;20.33;;;;;47.95;23.70;100049.72;5047012;28;45432;-71
2023/06/17 07:45:22;;;;;;;;;18.67;18.00;;;;;47.91;22.93;100043.72;5050422;28;45417;-73
2023/06/17 07:47:48;;;;;;;;;17.33;17.33;;;;;48.06;23.61;100048.28;5054109;28;45986;-73
2023/06/17 07:50:13;;;;;;;;;20.00;20.00;;;;;48.11;23.24;100048.47;5049245;28;45427;-73
2023/06/17 07:52:39;;;;;;;;;17.00;17.00;;;;;48.60;23.21;100052.72;5034886;28;45581;-73
2023/06/17 07:55:06;;;;;;;;;18.33;18.00;;;;;49.05;22.53;100054.81;5042169;28;45898;-74
2023/06/17 07:57:32;;;;;;;;;17.33;16.33;;;;;49.52;20.93;100052.69;5034144;28;46347;-73
2023/06/17 07:59:58;;;;;;;;;19.00;18.67;;;;;49.72;21.93;100060.91;5044310;28;45622;-73
2023/06/17 08:02:23;;;;;;;;;20.00;20.00;;;;;50.59;21.04;100050.03;5043915;28;45377;-74
2023/06/17 08:04:49;;;;;;;;;18.00;17.00;;;;;51.25;20.36;100048.44;5048170;28;45446;-73
2023/06/17 08:07:15;;;;;;;;;17.67;17.00;;;;;50.77;20.18;100046.41;5038714;28;46107;-73
2023/06/17 08:09:41;;;;;;;;;17.33;17.00;;;;;50.54;19.86;100038.72;5050349;28;45578;-73
2023/06/17 08:12:07;;;;;;;;;19.67;18.67;;;;;50.38;20.06;100036.53;5034084;28;45394;-73
2023/06/17 08:14:32;;;;;;;;;19.25;19.25;;;;;49.84;20.49;100045.25;5048497;28;45422;-74
2023/06/17 08:16:58;;;;;;;;;21.67;19.33;;;;;50.12;20.52;100028.22;5037925;28;46017;-74
2023/06/17 08:19:23;;;;;;;;;18.00;18.00;;;;;50.19;21.65;100030.94;5035694;28;45435;-74
2023/06/17 08:21:50;;;;;;;;;25.00;24.00;;;;;50.41;20.86;100025.81;5035430;28;45431;-74
2023/06/17 08:24:22;;;;;;;;;18.67;18.67;;;;;50.12;21.34;100032.91;5047886;28;45492;-74
2023/06/17 08:26:49;;;;;;;;;19.75;19.25;;;;;50.44;21.42;100030.94;5037514;28;45580;-73
2023/06/17 08:29:16;;;;;;;;;18.25;18.25;;;;;49.75;21.29;100032.75;5048360;28;45360;-73
2023/06/17 08:31:43;;;;;;;;;20.00;19.33;;;;;49.41;21.69;100032.06;5046533;28;45422;-74
2023/06/17 08:34:09;;;;;;;;;20.33;20.33;;;;;48.11;23.24;100031.84;5043269;28;45419;-75
2023/06/17 08:36:38;;;;;;;;;20.33;20.00;;;;;46.18;24.62;100027.06;5045145;28;45537;-74
2023/06/17 08:39:04;;;;;;;;;24.67;22.33;;;;;44.96;26.15;100032.41;5047561;28;45459;-74
2023/06/17 08:41:30;;;;;;;;;19.00;19.00;;;;;44.00;27.00;100027.44;5045035;28;45513;-75
2023/06/17 08:43:57;;;;;;;;;23.67;23.67;;;;;42.94;28.45;100026.13;5053510;28;45506;-73
2023/06/17 08:46:24;;;;;;;;;25.67;23.67;;;;;42.25;28.97;100021.06;5035721;28;46940;-73
2023/06/17 08:48:52;;;;;;;;;22.33;21.33;;;;;41.86;29.94;100027.22;5057111;28;45487;-75
2023/06/17 08:51:19;;;;;;;;;23.00;22.67;;;;;42.04;29.76;100027.09;5055890;28;45306;-74
2023/06/17 08:53:45;;;;;;;;;18.33;18.33;;;;;42.02;29.63;100025.47;5057488;28;45429;-74
2023/06/17 08:56:12;;;;;;;;;22.33;20.67;;;;;41.05;30.76;100028.63;5054246;28;45516;-74
2023/06/17 08:58:37;;;;;;;;;24.00;23.33;;;;;40.79;31.12;100031.44;5051617;28;45291;-74
2023/06/17 09:01:06;;;;;;;;;24.00;23.33;;;;;41.52;30.42;100021.78;5048144;28;45559;-75
2023/06/17 09:03:36;;;;;;;;;20.00;18.00;;;;;41.02;30.94;100028.09;5037238;28;45431;-74
2023/06/17 09:06:03;;;;;;;;;21.33;21.00;;;;;41.05;31.17;100027.78;5056459;28;45472;-74
2023/06/17 09:08:30;;;;;;;;;21.00;21.00;;;;;41.99;29.76;100026.69;5057661;28;45513;-74
2023/06/17 09:11:05;;;;;;;;;20.00;18.67;;;;;42.55;29.39;100020.53;5057874;28;45552;-75
2023/06/17 09:13:30;;;;;;;;;20.67;19.33;;;;;43.25;28.25;100022.53;5039030;28;45671;-74
2023/06/17 09:15:56;;;;;;;;;22.33;22.33;;;;;43.46;27.52;100017.31;5038331;28;46240;-74
2023/06/17 09:18:21;;;;;;;;;21.33;21.00;;;;;43.63;27.47;100017.19;5039672;28;45493;-74
2023/06/17 09:20:56;;;;;;;;;19.00;18.33;;;;;44.31;26.78;100012.72;5046041;28;45572;-74
2023/06/17 09:23:23;;;;;;;;;21.33;19.67;;;;;44.70;26.23;100013.56;5048325;28;45538;-73
2023/06/17 09:25:59;;;;;;;;;20.33;19.67;;;;;43.61;27.32;99998.13;5057017;28;45374;-75
2023/06/17 09:28:25;;;;;;;;;21.00;21.00;;;;;44.37;26.04;100016.63;5049927;28;45470;-75
2023/06/17 09:30:53;;;;;;;;;19.00;18.67;;;;;44.60;26.46;100002.84;5047431;28;45386;-74
2023/06/17 09:33:22;;;;;;;;;20.33;18.67;;;;;44.14;26.15;100011.19;5049607;28;45798;-75
2023/06/17 09:36:01;;;;;;;;;18.67;18.67;;;;;43.32;27.93;100015.34;5049725;28;45532;-74
2023/06/17 09:38:33;;;;;;;;;20.33;20.00;;;;;43.08;27.73;100017.13;5053302;28;45382;-74
2023/06/17 09:40:59;;;;;;;;;22.00;21.67;;;;;42.74;28.58;100009.16;5041046;28;45488;-74
2023/06/17 09:43:26;;;;;;;;;20.00;19.67;;;;;42.65;28.70;99996.47;5051610;28;45756;-74
2023/06/17 09:46:04;;;;;;;;;21.33;20.67;;;;;42.97;28.25;100002.91;5046053;28;45569;-75
2023/06/17 09:48:35;;;;;;;;;22.33;21.33;;;;;42.71;28.28;100007.59;5040674;28;45608;-74
2023/06/17 09:51:05;;;;;;;;;22.33;22.00;;;;;42.39;29.33;100000.28;5052373;28;45379;-75
2023/06/17 09:53:30;;;;;;;;;24.67;23.67;;;;;41.78;29.54;100005.25;5056320;28;45436;-75
2023/06/17 09:55:58;;;;;;;;;22.00;21.00;;;;;41.33;30.74;100010.09;5054473;28;45485;-73
2023/06/17 09:58:30;;;;;;;;;23.67;23.00;;;;;40.91;30.55;100010.94;5054401;28;45552;-74
2023/06/17 10:01:00;;;;;;;;;22.67;22.33;;;;;40.75;30.92;99998.03;5034407;28;45830;-74
2023/06/17 10:03:28;;;;;;;;;27.25;26.50;;;;;39.96;31.97;100018.09;5056032;28;45560;-75
2023/06/17 10:06:07;;;;;;;;;26.00;23.67;;;;;39.69;32.28;100008.91;5043809;28;45389;-75
2023/06/17 10:08:36;;;;;;;;;27.33;25.00;;;;;39.09;32.67;100016.75;5039670;28;45256;-74
2023/06/17 10:11:02;;;;;;;;;23.33;22.00;;;;;37.85;35.04;100018.53;5046667;28;45353;-75
2023/06/17 10:13:35;;;;;;;;;23.00;23.00;;;;;37.42;35.81;100005.13;5038395;28;45509;-75
2023/06/17 10:16:04;;;;;;;;;21.67;20.33;;;;;36.80;37.21;100011.63;5050505;28;46036;-74
2023/06/17 10:18:33;;;;;;;;;20.00;19.00;;;;;36.05;37.90;100013.53;5054881;28;45560;-74
2023/06/17 10:21:02;;;;;;;;;20.00;19.00;;;;;35.11;38.96;100014.97;5035397;28;45549;-74
2023/06/17 10:23:28;;;;;;;;;21.33;20.00;;;;;34.22;41.27;100007.47;5056889;28;45417;-75
2023/06/17 10:25:54;;;;;;;;;23.33;21.33;;;;;33.36;42.30;100022.03;5038138;28;45463;-77
2023/06/17 10:28:20;;;;;;;;;20.33;20.33;;;;;33.10;42.92;100023.94;5042963;28;45674;-74
2023/06/17 10:30:48;;;;;;;;;19.67;19.67;;;;;32.63;43.48;100025.44;5056394;28;45519;-74
2023/06/17 10:33:14;;;;;;;;;18.00;17.00;;;;;32.24;43.86;100019.13;5038389;28;45499;-75
2023/06/17 10:35:45;;;;;;;;;18.33;18.00;;;;;31.91;44.41;100026.72;5052996;28;45502;-74
2023/06/17 10:38:38;;;;;;;;;17.00;15.33;;;;;31.68;45.58;100027.38;5036677;28;45423;-77
2023/06/17 10:41:03;;;;;;;;;18.67;18.67;;;;;31.54;44.84;100019.34;5033275;28;45678;-74
2023/06/17 10:43:36;;;;;;;;;18.67;17.67;;;;;30.82;46.89;100027.44;5052916;28;45516;-74
2023/06/17 10:46:01;;;;;;;;;22.67;19.33;;;;;30.44;48.05;100019.91;5034450;28;45603;-73
2023/06/17 10:48:31;;;;;;;;;22.67;20.67;;;;;30.67;47.59;100027.44;5055746;28;45676;-73
2023/06/17 10:51:00;;;;;;;;;20.67;18.00;;;;;30.82;47.40;100028.31;5055212;28;45590;-74
2023/06/17 10:53:27;;;;;;;;;21.00;19.67;;;;;30.41;48.15;100009.31;5040370;28;45678;-73
2023/06/17 10:55:53;;;;;;;;;19.33;19.00;;;;;30.29;48.08;100017.16;5038068;28;47732;-74
2023/06/17 10:58:19;;;;;;;;;22.67;20.33;;;;;30.13;48.76;100013.66;5044508;28;45330;-74
2023/06/17 11:00:45;;;;;;;;;18.00;16.00;;;;;30.07;48.81;100027.50;5052128;28;45332;-73
2023/06/17 11:03:10;;;;;;;;;19.33;18.00;;;;;30.05;48.82;100026.72;5049951;28;45450;-73
2023/06/17 11:05:36;;;;;;;;;21.00;19.00;;;;;30.11;48.68;100019.13;5053421;28;45387;-73
2023/06/17 11:08:03;;;;;;;;;20.00;19.67;;;;;30.10;48.11;100017.41;5051332;28;45484;-72